sensor_id;sensor_type;location;lat;lon;timestamp;temperature;humidity
26821;DHT22;37186;51.394;5.454;2023-08-06T00:00:00;19.00;77.50
26821;DHT22;37186;51.394;5.454;2023-08-06T00:03:01;19.00;78.30
26821;DHT22;37186;51.394;5.454;2023-08-06T00:06:02;19.00;77.70
26821;DHT22;37186;51.394;5.454;2023-08-06T00:09:02;19.00;77.70
26821;DHT22;37186;51.394;5.454;2023-08-06T00:12:03;19.00;77.60
26821;DHT22;37186;51.394;5.454;2023-08-06T00:15:04;18.90;77.90
26821;DHT22;37186;51.394;5.454;2023-08-06T00:18:05;18.90;77.50
26821;DHT22;37186;51.394;5.454;2023-08-06T00:21:05;19.00;77.70
26821;DHT22;37186;51.394;5.454;2023-08-06T00:24:06;18.90;77.60
26821;DHT22;37186;51.394;5.454;2023-08-06T00:27:06;19.00;77.70
26821;DHT22;37186;51.394;5.454;2023-08-06T00:30:07;18.90;77.60
26821;DHT22;37186;51.394;5.454;2023-08-06T00:33:08;18.90;77.60
26821;DHT22;37186;51.394;5.454;2023-08-06T00:36:08;18.90;77.50
26821;DHT22;37186;51.394;5.454;2023-08-06T00:39:09;18.90;77.50
26821;DHT22;37186;51.394;5.454;2023-08-06T00:42:12;18.90;77.60
26821;DHT22;37186;51.394;5.454;2023-08-06T00:45:13;18.90;77.60
26821;DHT22;37186;51.394;5.454;2023-08-06T00:48:14;18.90;77.60
26821;DHT22;37186;51.394;5.454;2023-08-06T00:51:15;18.90;77.70
26821;DHT22;37186;51.394;5.454;2023-08-06T00:54:16;18.90;77.70
26821;DHT22;37186;51.394;5.454;2023-08-06T00:57:17;18.90;77.70
26821;DHT22;37186;51.394;5.454;2023-08-06T01:00:18;18.90;77.80
26821;DHT22;37186;51.394;5.454;2023-08-06T01:03:19;18.90;77.70
26821;DHT22;37186;51.394;5.454;2023-08-06T01:06:29;18.90;77.70
26821;DHT22;37186;51.394;5.454;2023-08-06T01:10:09;18.90;77.90
26821;DHT22;37186;51.394;5.454;2023-08-06T01:13:34;18.80;77.70
26821;DHT22;37186;51.394;5.454;2023-08-06T01:16:38;18.90;77.70
26821;DHT22;37186;51.394;5.454;2023-08-06T01:19:40;18.90;77.90
26821;DHT22;37186;51.394;5.454;2023-08-06T01:22:41;18.80;77.70
26821;DHT22;37186;51.394;5.454;2023-08-06T01:25:45;18.80;77.70
26821;DHT22;37186;51.394;5.454;2023-08-06T01:31:58;18.80;77.70
26821;DHT22;37186;51.394;5.454;2023-08-06T01:35:00;18.80;77.90
26821;DHT22;37186;51.394;5.454;2023-08-06T01:38:02;18.80;77.70
26821;DHT22;37186;51.394;5.454;2023-08-06T01:41:03;18.80;77.80
26821;DHT22;37186;51.394;5.454;2023-08-06T01:44:04;18.70;77.80
26821;DHT22;37186;51.394;5.454;2023-08-06T01:47:05;18.70;77.90
26821;DHT22;37186;51.394;5.454;2023-08-06T01:50:06;18.80;77.80
26821;DHT22;37186;51.394;5.454;2023-08-06T01:53:06;18.70;77.70
26821;DHT22;37186;51.394;5.454;2023-08-06T01:56:07;18.70;77.80
26821;DHT22;37186;51.394;5.454;2023-08-06T01:59:08;18.70;77.70
26821;DHT22;37186;51.394;5.454;2023-08-06T02:02:08;18.70;77.80
26821;DHT22;37186;51.394;5.454;2023-08-06T02:05:09;18.70;77.90
26821;DHT22;37186;51.394;5.454;2023-08-06T02:08:09;18.70;77.70
26821;DHT22;37186;51.394;5.454;2023-08-06T02:11:10;18.70;77.80
26821;DHT22;37186;51.394;5.454;2023-08-06T02:14:10;18.70;77.90
26821;DHT22;37186;51.394;5.454;2023-08-06T02:17:12;18.60;77.70
26821;DHT22;37186;51.394;5.454;2023-08-06T02:20:12;18.70;77.80
26821;DHT22;37186;51.394;5.454;2023-08-06T02:23:13;18.70;77.80
26821;DHT22;37186;51.394;5.454;2023-08-06T02:26:13;18.60;77.70
26821;DHT22;37186;51.394;5.454;2023-08-06T02:29:14;18.60;77.70
26821;DHT22;37186;51.394;5.454;2023-08-06T02:32:14;18.60;77.90
26821;DHT22;37186;51.394;5.454;2023-08-06T02:35:15;18.60;77.80
26821;DHT22;37186;51.394;5.454;2023-08-06T02:38:16;18.60;77.70
26821;DHT22;37186;51.394;5.454;2023-08-06T02:41:16;18.60;77.80
26821;DHT22;37186;51.394;5.454;2023-08-06T02:44:17;18.60;77.80
26821;DHT22;37186;51.394;5.454;2023-08-06T02:47:17;18.60;77.80
26821;DHT22;37186;51.394;5.454;2023-08-06T02:50:18;18.60;77.90
26821;DHT22;37186;51.394;5.454;2023-08-06T02:53:18;18.50;77.70
26821;DHT22;37186;51.394;5.454;2023-08-06T02:56:19;18.50;77.70
26821;DHT22;37186;51.394;5.454;2023-08-06T02:59:19;18.50;77.80
26821;DHT22;37186;51.394;5.454;2023-08-06T03:02:20;18.50;77.70
26821;DHT22;37186;51.394;5.454;2023-08-06T03:05:21;18.50;77.70
26821;DHT22;37186;51.394;5.454;2023-08-06T03:08:21;18.50;77.80
26821;DHT22;37186;51.394;5.454;2023-08-06T03:11:22;18.50;77.80
26821;DHT22;37186;51.394;5.454;2023-08-06T03:14:23;18.50;77.90
26821;DHT22;37186;51.394;5.454;2023-08-06T03:17:24;18.50;77.90
26821;DHT22;37186;51.394;5.454;2023-08-06T03:20:25;18.50;77.80
26821;DHT22;37186;51.394;5.454;2023-08-06T03:23:26;18.50;77.80
26821;DHT22;37186;51.394;5.454;2023-08-06T03:26:26;18.50;77.90
26821;DHT22;37186;51.394;5.454;2023-08-06T03:29:27;18.50;77.90
26821;DHT22;37186;51.394;5.454;2023-08-06T03:32:27;18.50;77.90
26821;DHT22;37186;51.394;5.454;2023-08-06T03:35:28;18.40;77.90
26821;DHT22;37186;51.394;5.454;2023-08-06T03:38:28;18.40;77.90
26821;DHT22;37186;51.394;5.454;2023-08-06T03:41:29;18.40;77.90
26821;DHT22;37186;51.394;5.454;2023-08-06T03:44:29;18.40;77.90
26821;DHT22;37186;51.394;5.454;2023-08-06T03:47:31;18.40;77.90
26821;DHT22;37186;51.394;5.454;2023-08-06T03:50:31;18.40;78.00
26821;DHT22;37186;51.394;5.454;2023-08-06T03:53:32;18.40;77.90
26821;DHT22;37186;51.394;5.454;2023-08-06T03:56:32;18.40;77.90
26821;DHT22;37186;51.394;5.454;2023-08-06T03:59:33;18.40;77.90
26821;DHT22;37186;51.394;5.454;2023-08-06T04:02:33;18.40;78.00
26821;DHT22;37186;51.394;5.454;2023-08-06T04:05:34;18.40;77.90
26821;DHT22;37186;51.394;5.454;2023-08-06T04:08:35;18.40;77.90
26821;DHT22;37186;51.394;5.454;2023-08-06T04:11:35;18.40;78.00
26821;DHT22;37186;51.394;5.454;2023-08-06T04:14:37;18.40;78.00
26821;DHT22;37186;51.394;5.454;2023-08-06T04:17:37;18.40;78.00
26821;DHT22;37186;51.394;5.454;2023-08-06T04:20:47;18.30;77.90
26821;DHT22;37186;51.394;5.454;2023-08-06T04:23:49;18.40;78.00
26821;DHT22;37186;51.394;5.454;2023-08-06T04:26:50;18.30;77.90
26821;DHT22;37186;51.394;5.454;2023-08-06T04:29:50;18.40;78.00
26821;DHT22;37186;51.394;5.454;2023-08-06T04:32:51;18.30;77.90
26821;DHT22;37186;51.394;5.454;2023-08-06T04:35:54;18.40;78.20
26821;DHT22;37186;51.394;5.454;2023-08-06T04:38:56;18.40;78.10
26821;DHT22;37186;51.394;5.454;2023-08-06T04:41:56;18.30;78.00
26821;DHT22;37186;51.394;5.454;2023-08-06T04:45:01;18.30;78.00
26821;DHT22;37186;51.394;5.454;2023-08-06T04:48:02;18.30;78.00
26821;DHT22;37186;51.394;5.454;2023-08-06T04:51:03;18.30;78.00
26821;DHT22;37186;51.394;5.454;2023-08-06T04:54:03;18.30;78.10
26821;DHT22;37186;51.394;5.454;2023-08-06T04:57:04;18.30;78.00
26821;DHT22;37186;51.394;5.454;2023-08-06T05:00:05;18.30;78.00
26821;DHT22;37186;51.394;5.454;2023-08-06T05:03:06;18.30;78.00
26821;DHT22;37186;51.394;5.454;2023-08-06T05:06:07;18.30;78.00
26821;DHT22;37186;51.394;5.454;2023-08-06T05:09:08;18.30;78.10
26821;DHT22;37186;51.394;5.454;2023-08-06T05:12:09;18.30;78.10
26821;DHT22;37186;51.394;5.454;2023-08-06T05:15:09;18.30;78.10
26821;DHT22;37186;51.394;5.454;2023-08-06T05:18:10;18.30;78.10
26821;DHT22;37186;51.394;5.454;2023-08-06T05:21:11;18.30;78.20
26821;DHT22;37186;51.394;5.454;2023-08-06T05:24:12;18.30;78.10
26821;DHT22;37186;51.394;5.454;2023-08-06T05:27:12;18.30;78.10
26821;DHT22;37186;51.394;5.454;2023-08-06T05:30:13;18.30;78.20
26821;DHT22;37186;51.394;5.454;2023-08-06T05:33:14;18.30;78.20
26821;DHT22;37186;51.394;5.454;2023-08-06T05:36:14;18.30;78.30
26821;DHT22;37186;51.394;5.454;2023-08-06T05:39:15;18.30;78.30
26821;DHT22;37186;51.394;5.454;2023-08-06T05:42:16;18.30;78.30
26821;DHT22;37186;51.394;5.454;2023-08-06T05:45:16;18.30;78.40
26821;DHT22;37186;51.394;5.454;2023-08-06T05:48:17;18.30;78.40
26821;DHT22;37186;51.394;5.454;2023-08-06T05:51:18;18.30;78.40
26821;DHT22;37186;51.394;5.454;2023-08-06T05:54:19;18.30;78.40
26821;DHT22;37186;51.394;5.454;2023-08-06T05:57:20;18.40;78.50
26821;DHT22;37186;51.394;5.454;2023-08-06T06:00:21;18.40;78.70
26821;DHT22;37186;51.394;5.454;2023-08-06T06:03:22;18.40;78.70
26821;DHT22;37186;51.394;5.454;2023-08-06T06:06:22;18.40;78.60
26821;DHT22;37186;51.394;5.454;2023-08-06T06:09:23;18.40;78.60
26821;DHT22;37186;51.394;5.454;2023-08-06T06:12:23;18.40;78.80
26821;DHT22;37186;51.394;5.454;2023-08-06T06:15:26;18.40;78.80
26821;DHT22;37186;51.394;5.454;2023-08-06T06:18:26;18.40;78.70
26821;DHT22;37186;51.394;5.454;2023-08-06T06:21:27;18.50;78.80
26821;DHT22;37186;51.394;5.454;2023-08-06T06:24:27;18.40;78.70
26821;DHT22;37186;51.394;5.454;2023-08-06T06:27:28;18.50;79.00
26821;DHT22;37186;51.394;5.454;2023-08-06T06:30:28;18.50;79.50
26821;DHT22;37186;51.394;5.454;2023-08-06T06:33:29;18.50;79.30
26821;DHT22;37186;51.394;5.454;2023-08-06T06:36:30;18.50;79.00
26821;DHT22;37186;51.394;5.454;2023-08-06T06:39:30;18.50;79.00
26821;DHT22;37186;51.394;5.454;2023-08-06T06:42:31;18.50;78.90
26821;DHT22;37186;51.394;5.454;2023-08-06T06:45:31;18.50;78.90
26821;DHT22;37186;51.394;5.454;2023-08-06T06:48:32;18.60;79.00
26821;DHT22;37186;51.394;5.454;2023-08-06T06:51:33;18.60;79.30
26821;DHT22;37186;51.394;5.454;2023-08-06T06:54:34;18.60;79.90
26821;DHT22;37186;51.394;5.454;2023-08-06T06:57:34;18.60;79.40
26821;DHT22;37186;51.394;5.454;2023-08-06T07:00:38;18.50;79.20
26821;DHT22;37186;51.394;5.454;2023-08-06T07:03:39;18.40;79.20
26821;DHT22;37186;51.394;5.454;2023-08-06T07:06:39;18.40;79.00
26821;DHT22;37186;51.394;5.454;2023-08-06T07:09:40;18.30;78.70
26821;DHT22;37186;51.394;5.454;2023-08-06T07:12:40;18.20;78.70
26821;DHT22;37186;51.394;5.454;2023-08-06T07:15:41;18.20;78.70
26821;DHT22;37186;51.394;5.454;2023-08-06T07:18:41;18.10;78.40
26821;DHT22;37186;51.394;5.454;2023-08-06T07:21:42;18.00;78.60
26821;DHT22;37186;51.394;5.454;2023-08-06T07:24:43;17.90;78.80
26821;DHT22;37186;51.394;5.454;2023-08-06T07:27:43;17.90;78.80
26821;DHT22;37186;51.394;5.454;2023-08-06T07:30:45;17.80;78.90
26821;DHT22;37186;51.394;5.454;2023-08-06T07:33:46;17.70;79.10
26821;DHT22;37186;51.394;5.454;2023-08-06T07:36:46;17.70;79.40
26821;DHT22;37186;51.394;5.454;2023-08-06T07:39:47;17.70;79.30
26821;DHT22;37186;51.394;5.454;2023-08-06T07:42:48;17.60;79.30
26821;DHT22;37186;51.394;5.454;2023-08-06T07:45:48;17.60;79.70
26821;DHT22;37186;51.394;5.454;2023-08-06T07:48:49;17.50;79.80
26821;DHT22;37186;51.394;5.454;2023-08-06T07:51:50;17.50;80.00
26821;DHT22;37186;51.394;5.454;2023-08-06T07:54:52;17.50;80.50
26821;DHT22;37186;51.394;5.454;2023-08-06T07:57:53;17.50;80.10
26821;DHT22;37186;51.394;5.454;2023-08-06T08:00:53;17.40;80.50
26821;DHT22;37186;51.394;5.454;2023-08-06T08:03:54;17.40;80.20
26821;DHT22;37186;51.394;5.454;2023-08-06T08:06:55;17.40;80.20
26821;DHT22;37186;51.394;5.454;2023-08-06T08:09:56;17.40;80.40
26821;DHT22;37186;51.394;5.454;2023-08-06T08:12:56;17.30;80.80
26821;DHT22;37186;51.394;5.454;2023-08-06T08:15:58;17.40;80.50
26821;DHT22;37186;51.394;5.454;2023-08-06T08:18:58;17.40;80.60
26821;DHT22;37186;51.394;5.454;2023-08-06T08:21:59;17.30;80.60
26821;DHT22;37186;51.394;5.454;2023-08-06T08:25:00;17.30;80.60
26821;DHT22;37186;51.394;5.454;2023-08-06T08:28:00;17.30;81.10
26821;DHT22;37186;51.394;5.454;2023-08-06T08:31:01;17.30;81.00
26821;DHT22;37186;51.394;5.454;2023-08-06T08:34:01;17.30;81.20
26821;DHT22;37186;51.394;5.454;2023-08-06T08:37:02;17.30;81.20
26821;DHT22;37186;51.394;5.454;2023-08-06T08:40:03;17.30;80.90
26821;DHT22;37186;51.394;5.454;2023-08-06T08:43:04;17.30;81.30
26821;DHT22;37186;51.394;5.454;2023-08-06T08:46:06;17.30;81.30
26821;DHT22;37186;51.394;5.454;2023-08-06T08:49:08;17.20;82.00
26821;DHT22;37186;51.394;5.454;2023-08-06T08:52:10;17.30;81.50
26821;DHT22;37186;51.394;5.454;2023-08-06T08:55:15;17.20;82.70
26821;DHT22;37186;51.394;5.454;2023-08-06T08:58:16;17.30;81.90
26821;DHT22;37186;51.394;5.454;2023-08-06T09:01:16;17.30;81.60
26821;DHT22;37186;51.394;5.454;2023-08-06T09:04:18;17.40;81.80
26821;DHT22;37186;51.394;5.454;2023-08-06T09:07:19;17.30;82.20
26821;DHT22;37186;51.394;5.454;2023-08-06T09:10:21;17.30;82.00
26821;DHT22;37186;51.394;5.454;2023-08-06T09:13:25;17.40;82.10
26821;DHT22;37186;51.394;5.454;2023-08-06T09:16:26;17.30;82.00
26821;DHT22;37186;51.394;5.454;2023-08-06T09:19:27;17.30;81.80
26821;DHT22;37186;51.394;5.454;2023-08-06T09:22:34;17.40;81.80
26821;DHT22;37186;51.394;5.454;2023-08-06T09:25:38;17.30;81.90
26821;DHT22;37186;51.394;5.454;2023-08-06T09:28:40;17.40;81.80
26821;DHT22;37186;51.394;5.454;2023-08-06T09:31:46;17.30;82.10
26821;DHT22;37186;51.394;5.454;2023-08-06T09:34:47;17.40;82.10
26821;DHT22;37186;51.394;5.454;2023-08-06T09:37:47;17.30;81.90
26821;DHT22;37186;51.394;5.454;2023-08-06T09:40:48;17.30;81.90
26821;DHT22;37186;51.394;5.454;2023-08-06T09:43:48;17.30;82.00
26821;DHT22;37186;51.394;5.454;2023-08-06T09:46:50;17.30;81.80
26821;DHT22;37186;51.394;5.454;2023-08-06T09:49:51;17.30;81.50
26821;DHT22;37186;51.394;5.454;2023-08-06T09:52:52;17.30;81.50
26821;DHT22;37186;51.394;5.454;2023-08-06T09:55:53;17.30;81.70
26821;DHT22;37186;51.394;5.454;2023-08-06T09:58:54;17.30;81.70
26821;DHT22;37186;51.394;5.454;2023-08-06T10:01:55;17.30;81.50
26821;DHT22;37186;51.394;5.454;2023-08-06T10:04:57;17.30;81.50
26821;DHT22;37186;51.394;5.454;2023-08-06T10:07:59;17.30;81.40
26821;DHT22;37186;51.394;5.454;2023-08-06T10:11:03;17.30;81.30
26821;DHT22;37186;51.394;5.454;2023-08-06T10:14:25;17.30;81.80
26821;DHT22;37186;51.394;5.454;2023-08-06T10:17:27;17.30;81.30
26821;DHT22;37186;51.394;5.454;2023-08-06T10:20:34;17.40;81.80
26821;DHT22;37186;51.394;5.454;2023-08-06T10:23:36;17.40;81.70
26821;DHT22;37186;51.394;5.454;2023-08-06T10:26:38;17.40;82.10
26821;DHT22;37186;51.394;5.454;2023-08-06T10:29:39;17.40;81.70
26821;DHT22;37186;51.394;5.454;2023-08-06T10:32:50;17.40;81.50
26821;DHT22;37186;51.394;5.454;2023-08-06T10:35:50;17.40;81.50
26821;DHT22;37186;51.394;5.454;2023-08-06T10:38:57;17.40;82.20
26821;DHT22;37186;51.394;5.454;2023-08-06T10:41:58;17.40;81.70
26821;DHT22;37186;51.394;5.454;2023-08-06T10:45:15;17.50;81.70
26821;DHT22;37186;51.394;5.454;2023-08-06T10:48:29;17.50;81.80
26821;DHT22;37186;51.394;5.454;2023-08-06T10:51:30;17.50;81.80
26821;DHT22;37186;51.394;5.454;2023-08-06T10:54:31;17.50;81.90
26821;DHT22;37186;51.394;5.454;2023-08-06T10:57:32;17.50;82.20
26821;DHT22;37186;51.394;5.454;2023-08-06T11:00:33;17.50;81.90
26821;DHT22;37186;51.394;5.454;2023-08-06T11:03:33;17.50;81.80
26821;DHT22;37186;51.394;5.454;2023-08-06T11:06:34;17.50;81.80
26821;DHT22;37186;51.394;5.454;2023-08-06T11:09:35;17.60;81.90
26821;DHT22;37186;51.394;5.454;2023-08-06T11:12:36;17.60;82.20
26821;DHT22;37186;51.394;5.454;2023-08-06T11:15:36;17.60;82.20
26821;DHT22;37186;51.394;5.454;2023-08-06T11:18:37;17.70;82.40
26821;DHT22;37186;51.394;5.454;2023-08-06T11:21:39;17.70;82.40
26821;DHT22;37186;51.394;5.454;2023-08-06T11:24:40;17.70;82.30
26821;DHT22;37186;51.394;5.454;2023-08-06T11:27:40;17.70;82.30
26821;DHT22;37186;51.394;5.454;2023-08-06T11:30:41;17.70;82.30
26821;DHT22;37186;51.394;5.454;2023-08-06T11:33:41;17.80;82.30
26821;DHT22;37186;51.394;5.454;2023-08-06T11:36:42;17.80;82.10
26821;DHT22;37186;51.394;5.454;2023-08-06T11:39:49;17.80;82.00
26821;DHT22;37186;51.394;5.454;2023-08-06T11:42:50;17.80;82.30
26821;DHT22;37186;51.394;5.454;2023-08-06T11:45:51;17.80;82.10
26821;DHT22;37186;51.394;5.454;2023-08-06T11:48:55;17.90;82.20
26821;DHT22;37186;51.394;5.454;2023-08-06T11:51:55;17.90;82.40
26821;DHT22;37186;51.394;5.454;2023-08-06T11:55:06;17.90;82.50
26821;DHT22;37186;51.394;5.454;2023-08-06T11:58:09;17.90;82.40
26821;DHT22;37186;51.394;5.454;2023-08-06T12:01:10;17.90;82.30
26821;DHT22;37186;51.394;5.454;2023-08-06T12:04:11;17.90;82.30
26821;DHT22;37186;51.394;5.454;2023-08-06T12:07:11;18.00;82.30
26821;DHT22;37186;51.394;5.454;2023-08-06T12:10:12;17.90;82.10
26821;DHT22;37186;51.394;5.454;2023-08-06T12:13:13;18.00;82.20
26821;DHT22;37186;51.394;5.454;2023-08-06T12:16:14;17.90;82.30
26821;DHT22;37186;51.394;5.454;2023-08-06T12:19:14;18.00;82.60
26821;DHT22;37186;51.394;5.454;2023-08-06T12:22:15;17.90;83.00
26821;DHT22;37186;51.394;5.454;2023-08-06T12:25:16;17.90;82.30
26821;DHT22;37186;51.394;5.454;2023-08-06T12:28:17;17.90;82.10
26821;DHT22;37186;51.394;5.454;2023-08-06T12:31:17;17.90;82.20
26821;DHT22;37186;51.394;5.454;2023-08-06T12:34:18;17.90;82.50
26821;DHT22;37186;51.394;5.454;2023-08-06T12:37:18;17.90;82.20
26821;DHT22;37186;51.394;5.454;2023-08-06T12:40:20;17.90;82.40
26821;DHT22;37186;51.394;5.454;2023-08-06T12:43:20;17.90;82.40
26821;DHT22;37186;51.394;5.454;2023-08-06T12:46:21;17.90;82.20
26821;DHT22;37186;51.394;5.454;2023-08-06T12:49:22;17.90;82.20
26821;DHT22;37186;51.394;5.454;2023-08-06T12:52:23;17.80;82.20
26821;DHT22;37186;51.394;5.454;2023-08-06T12:55:23;17.80;82.40
26821;DHT22;37186;51.394;5.454;2023-08-06T12:58:24;17.80;82.20
26821;DHT22;37186;51.394;5.454;2023-08-06T13:01:24;17.80;82.30
26821;DHT22;37186;51.394;5.454;2023-08-06T13:04:25;17.90;82.10
26821;DHT22;37186;51.394;5.454;2023-08-06T13:07:25;17.90;82.20
26821;DHT22;37186;51.394;5.454;2023-08-06T13:10:26;17.80;83.00
26821;DHT22;37186;51.394;5.454;2023-08-06T13:13:27;17.90;82.20
26821;DHT22;37186;51.394;5.454;2023-08-06T13:16:28;17.90;82.10
26821;DHT22;37186;51.394;5.454;2023-08-06T13:19:29;17.90;82.20
26821;DHT22;37186;51.394;5.454;2023-08-06T13:22:30;18.00;82.40
26821;DHT22;37186;51.394;5.454;2023-08-06T13:25:30;18.00;83.30
26821;DHT22;37186;51.394;5.454;2023-08-06T13:28:34;18.00;82.40
26821;DHT22;37186;51.394;5.454;2023-08-06T13:31:35;18.00;82.60
26821;DHT22;37186;51.394;5.454;2023-08-06T13:34:36;18.10;82.80
26821;DHT22;37186;51.394;5.454;2023-08-06T13:37:36;18.10;83.30
26821;DHT22;37186;51.394;5.454;2023-08-06T13:40:37;18.10;82.90
26821;DHT22;37186;51.394;5.454;2023-08-06T13:43:38;18.20;83.00
26821;DHT22;37186;51.394;5.454;2023-08-06T13:46:38;18.20;82.90
26821;DHT22;37186;51.394;5.454;2023-08-06T13:49:39;18.20;82.90
26821;DHT22;37186;51.394;5.454;2023-08-06T13:52:40;18.20;83.30
26821;DHT22;37186;51.394;5.454;2023-08-06T13:55:40;18.20;82.80
26821;DHT22;37186;51.394;5.454;2023-08-06T13:58:41;18.30;82.80
26821;DHT22;37186;51.394;5.454;2023-08-06T14:01:41;18.30;82.80
26821;DHT22;37186;51.394;5.454;2023-08-06T14:04:42;18.30;82.80
26821;DHT22;37186;51.394;5.454;2023-08-06T14:07:42;18.30;82.70
26821;DHT22;37186;51.394;5.454;2023-08-06T14:10:43;18.30;82.70
26821;DHT22;37186;51.394;5.454;2023-08-06T14:13:44;18.30;82.70
26821;DHT22;37186;51.394;5.454;2023-08-06T14:16:45;18.40;82.90
26821;DHT22;37186;51.394;5.454;2023-08-06T14:19:45;18.30;82.70
26821;DHT22;37186;51.394;5.454;2023-08-06T14:22:46;18.30;82.70
26821;DHT22;37186;51.394;5.454;2023-08-06T14:25:46;18.40;82.80
26821;DHT22;37186;51.394;5.454;2023-08-06T14:28:47;18.40;83.00
26821;DHT22;37186;51.394;5.454;2023-08-06T14:31:47;18.40;82.90
26821;DHT22;37186;51.394;5.454;2023-08-06T14:34:48;18.40;82.80
26821;DHT22;37186;51.394;5.454;2023-08-06T14:37:48;18.40;83.00
26821;DHT22;37186;51.394;5.454;2023-08-06T14:40:49;18.50;83.00
26821;DHT22;37186;51.394;5.454;2023-08-06T14:43:50;18.50;82.90
26821;DHT22;37186;51.394;5.454;2023-08-06T14:46:51;18.60;83.20
26821;DHT22;37186;51.394;5.454;2023-08-06T14:49:51;18.60;83.00
26821;DHT22;37186;51.394;5.454;2023-08-06T14:52:52;18.70;83.20
26821;DHT22;37186;51.394;5.454;2023-08-06T14:55:52;18.70;82.90
26821;DHT22;37186;51.394;5.454;2023-08-06T14:58:53;18.70;82.80
26821;DHT22;37186;51.394;5.454;2023-08-06T15:01:53;18.80;83.00
26821;DHT22;37186;51.394;5.454;2023-08-06T15:04:54;18.80;82.90
26821;DHT22;37186;51.394;5.454;2023-08-06T15:07:55;18.70;82.70
26821;DHT22;37186;51.394;5.454;2023-08-06T15:10:55;18.80;82.70
26821;DHT22;37186;51.394;5.454;2023-08-06T15:13:56;18.80;82.50
26821;DHT22;37186;51.394;5.454;2023-08-06T15:16:56;18.80;82.40
26821;DHT22;37186;51.394;5.454;2023-08-06T15:19:57;18.80;82.60
26821;DHT22;37186;51.394;5.454;2023-08-06T15:22:58;18.80;82.30
26821;DHT22;37186;51.394;5.454;2023-08-06T15:25:59;18.70;82.30
26821;DHT22;37186;51.394;5.454;2023-08-06T15:28:59;18.70;82.00
26821;DHT22;37186;51.394;5.454;2023-08-06T15:32:01;18.60;81.90
26821;DHT22;37186;51.394;5.454;2023-08-06T15:35:01;18.60;81.90
26821;DHT22;37186;51.394;5.454;2023-08-06T15:38:04;18.60;81.80
26821;DHT22;37186;51.394;5.454;2023-08-06T15:41:04;18.50;82.00
26821;DHT22;37186;51.394;5.454;2023-08-06T15:44:05;18.50;81.90
26821;DHT22;37186;51.394;5.454;2023-08-06T15:47:05;18.50;81.80
26821;DHT22;37186;51.394;5.454;2023-08-06T15:50:09;18.40;81.90
26821;DHT22;37186;51.394;5.454;2023-08-06T15:53:10;18.30;82.00
26821;DHT22;37186;51.394;5.454;2023-08-06T15:56:12;18.20;82.00
26821;DHT22;37186;51.394;5.454;2023-08-06T15:59:25;18.10;81.80
26821;DHT22;37186;51.394;5.454;2023-08-06T16:02:27;18.10;82.00
26821;DHT22;37186;51.394;5.454;2023-08-06T16:05:27;18.00;82.10
26821;DHT22;37186;51.394;5.454;2023-08-06T16:08:28;17.90;81.90
26821;DHT22;37186;51.394;5.454;2023-08-06T16:11:29;17.80;81.70
26821;DHT22;37186;51.394;5.454;2023-08-06T16:14:29;17.80;82.70
26821;DHT22;37186;51.394;5.454;2023-08-06T16:17:30;17.70;82.10
26821;DHT22;37186;51.394;5.454;2023-08-06T16:20:30;17.70;82.00
26821;DHT22;37186;51.394;5.454;2023-08-06T16:23:31;17.60;82.20
26821;DHT22;37186;51.394;5.454;2023-08-06T16:26:32;17.60;82.20
26821;DHT22;37186;51.394;5.454;2023-08-06T16:29:33;17.50;82.20
26821;DHT22;37186;51.394;5.454;2023-08-06T16:32:36;17.50;82.30
26821;DHT22;37186;51.394;5.454;2023-08-06T16:35:37;17.50;82.20
26821;DHT22;37186;51.394;5.454;2023-08-06T16:38:37;17.40;82.30
26821;DHT22;37186;51.394;5.454;2023-08-06T16:41:38;17.40;82.50
26821;DHT22;37186;51.394;5.454;2023-08-06T16:44:38;17.40;82.80
26821;DHT22;37186;51.394;5.454;2023-08-06T16:47:40;17.30;83.00
26821;DHT22;37186;51.394;5.454;2023-08-06T16:50:41;17.30;82.80
26821;DHT22;37186;51.394;5.454;2023-08-06T16:53:42;17.30;82.90
26821;DHT22;37186;51.394;5.454;2023-08-06T16:56:46;17.30;83.00
26821;DHT22;37186;51.394;5.454;2023-08-06T16:59:47;17.20;83.10
26821;DHT22;37186;51.394;5.454;2023-08-06T17:02:47;17.20;83.00
26821;DHT22;37186;51.394;5.454;2023-08-06T17:05:48;17.20;82.90
26821;DHT22;37186;51.394;5.454;2023-08-06T17:08:49;17.20;83.30
26821;DHT22;37186;51.394;5.454;2023-08-06T17:11:49;17.20;83.00
26821;DHT22;37186;51.394;5.454;2023-08-06T17:14:51;17.20;83.10
26821;DHT22;37186;51.394;5.454;2023-08-06T17:17:51;17.20;83.50
26821;DHT22;37186;51.394;5.454;2023-08-06T17:20:52;17.20;83.30
26821;DHT22;37186;51.394;5.454;2023-08-06T17:23:53;17.20;84.10
26821;DHT22;37186;51.394;5.454;2023-08-06T17:26:53;17.20;83.10
26821;DHT22;37186;51.394;5.454;2023-08-06T17:29:58;17.20;83.30
26821;DHT22;37186;51.394;5.454;2023-08-06T17:32:59;17.20;83.20
26821;DHT22;37186;51.394;5.454;2023-08-06T17:36:00;17.10;83.20
26821;DHT22;37186;51.394;5.454;2023-08-06T17:39:01;17.10;83.20
26821;DHT22;37186;51.394;5.454;2023-08-06T17:42:01;17.10;83.00
26821;DHT22;37186;51.394;5.454;2023-08-06T17:45:07;17.10;83.00
26821;DHT22;37186;51.394;5.454;2023-08-06T17:48:07;17.10;82.90
26821;DHT22;37186;51.394;5.454;2023-08-06T17:51:08;17.10;82.80
26821;DHT22;37186;51.394;5.454;2023-08-06T17:54:08;17.10;83.20
26821;DHT22;37186;51.394;5.454;2023-08-06T17:57:09;17.10;83.30
26821;DHT22;37186;51.394;5.454;2023-08-06T18:00:10;17.10;83.40
26821;DHT22;37186;51.394;5.454;2023-08-06T18:03:11;17.10;83.30
26821;DHT22;37186;51.394;5.454;2023-08-06T18:06:11;17.10;83.30
26821;DHT22;37186;51.394;5.454;2023-08-06T18:09:12;17.00;83.30
26821;DHT22;37186;51.394;5.454;2023-08-06T18:12:13;17.00;83.20
26821;DHT22;37186;51.394;5.454;2023-08-06T18:15:13;17.00;83.10
26821;DHT22;37186;51.394;5.454;2023-08-06T18:18:14;17.00;83.00
26821;DHT22;37186;51.394;5.454;2023-08-06T18:21:14;17.00;82.90
26821;DHT22;37186;51.394;5.454;2023-08-06T18:24:15;16.90;82.80
26821;DHT22;37186;51.394;5.454;2023-08-06T18:27:16;16.90;82.80
26821;DHT22;37186;51.394;5.454;2023-08-06T18:30:18;16.90;82.90
26821;DHT22;37186;51.394;5.454;2023-08-06T18:33:18;16.90;83.80
26821;DHT22;37186;51.394;5.454;2023-08-06T18:36:19;16.90;82.70
26821;DHT22;37186;51.394;5.454;2023-08-06T18:39:19;16.90;82.70
26821;DHT22;37186;51.394;5.454;2023-08-06T18:42:20;16.90;82.90
26821;DHT22;37186;51.394;5.454;2023-08-06T18:45:20;16.90;82.80
26821;DHT22;37186;51.394;5.454;2023-08-06T18:48:21;16.90;82.70
26821;DHT22;37186;51.394;5.454;2023-08-06T18:51:21;16.90;83.00
26821;DHT22;37186;51.394;5.454;2023-08-06T18:54:22;16.90;82.90
26821;DHT22;37186;51.394;5.454;2023-08-06T18:57:23;16.90;83.00
26821;DHT22;37186;51.394;5.454;2023-08-06T19:00:24;16.80;82.70
26821;DHT22;37186;51.394;5.454;2023-08-06T19:03:24;16.80;82.70
26821;DHT22;37186;51.394;5.454;2023-08-06T19:06:25;16.80;82.70